sensor_id;sensor_type;location;lat;lon;timestamp;P1;durP1;ratioP1;P2;durP2;ratioP2
44228;SDS011;29904;51.058;5.378;2023-03-01T00:01:04;6.60;;;4.43;;
44228;SDS011;29904;51.058;5.378;2023-03-01T00:03:32;6.03;;;4.40;;
44228;SDS011;29904;51.058;5.378;2023-03-01T00:06:00;6.55;;;4.40;;
44228;SDS011;29904;51.058;5.378;2023-03-01T00:08:28;6.25;;;4.53;;
44228;SDS011;29904;51.058;5.378;2023-03-01T00:11:05;6.00;;;4.40;;
44228;SDS011;29904;51.058;5.378;2023-03-01T00:13:35;6.60;;;4.50;;
44228;SDS011;29904;51.058;5.378;2023-03-01T00:16:02;6.03;;;4.40;;
44228;SDS011;29904;51.058;5.378;2023-03-01T00:18:38;5.97;;;4.40;;
44228;SDS011;29904;51.058;5.378;2023-03-01T00:21:06;6.40;;;4.45;;
44228;SDS011;29904;51.058;5.378;2023-03-01T00:23:33;6.85;;;4.18;;
44228;SDS011;29904;51.058;5.378;2023-03-01T00:25:59;7.93;;;4.60;;
44228;SDS011;29904;51.058;5.378;2023-03-01T00:28:31;7.63;;;4.53;;
44228;SDS011;29904;51.058;5.378;2023-03-01T00:31:02;6.75;;;4.60;;
44228;SDS011;29904;51.058;5.378;2023-03-01T00:33:28;6.60;;;4.50;;
44228;SDS011;29904;51.058;5.378;2023-03-01T00:35:54;6.73;;;4.80;;
44228;SDS011;29904;51.058;5.378;2023-03-01T00:38:22;6.82;;;4.82;;
44228;SDS011;29904;51.058;5.378;2023-03-01T00:40:48;7.35;;;4.47;;
44228;SDS011;29904;51.058;5.378;2023-03-01T00:43:13;5.73;;;4.53;;
44228;SDS011;29904;51.058;5.378;2023-03-01T00:45:39;7.03;;;4.83;;
44228;SDS011;29904;51.058;5.378;2023-03-01T00:48:05;7.15;;;4.53;;
44228;SDS011;29904;51.058;5.378;2023-03-01T00:50:31;8.13;;;4.45;;
44228;SDS011;29904;51.058;5.378;2023-03-01T00:52:56;8.07;;;5.20;;
44228;SDS011;29904;51.058;5.378;2023-03-01T00:55:24;8.68;;;5.45;;
44228;SDS011;29904;51.058;5.378;2023-03-01T00:57:51;6.47;;;4.73;;
44228;SDS011;29904;51.058;5.378;2023-03-01T01:00:17;7.18;;;5.13;;
44228;SDS011;29904;51.058;5.378;2023-03-01T01:02:43;8.80;;;5.03;;
44228;SDS011;29904;51.058;5.378;2023-03-01T01:05:09;6.60;;;4.88;;
44228;SDS011;29904;51.058;5.378;2023-03-01T01:07:35;8.23;;;5.13;;
44228;SDS011;29904;51.058;5.378;2023-03-01T01:10:01;7.23;;;5.20;;
44228;SDS011;29904;51.058;5.378;2023-03-01T01:12:27;8.48;;;5.10;;
44228;SDS011;29904;51.058;5.378;2023-03-01T01:14:52;7.07;;;5.07;;
44228;SDS011;29904;51.058;5.378;2023-03-01T01:17:20;6.68;;;5.20;;
44228;SDS011;29904;51.058;5.378;2023-03-01T01:19:46;6.97;;;5.30;;
44228;SDS011;29904;51.058;5.378;2023-03-01T01:22:11;7.93;;;5.80;;
44228;SDS011;29904;51.058;5.378;2023-03-01T01:24:39;7.90;;;5.00;;
44228;SDS011;29904;51.058;5.378;2023-03-01T01:27:04;9.10;;;5.47;;
44228;SDS011;29904;51.058;5.378;2023-03-01T01:29:32;6.07;;;4.82;;
44228;SDS011;29904;51.058;5.378;2023-03-01T01:31:58;7.57;;;5.20;;
44228;SDS011;29904;51.058;5.378;2023-03-01T01:34:23;5.93;;;4.80;;
44228;SDS011;29904;51.058;5.378;2023-03-01T01:36:53;6.68;;;5.07;;
44228;SDS011;29904;51.058;5.378;2023-03-01T01:39:20;6.80;;;5.22;;
44228;SDS011;29904;51.058;5.378;2023-03-01T01:41:46;8.05;;;5.35;;
44228;SDS011;29904;51.058;5.378;2023-03-01T01:46:45;6.90;;;5.32;;
44228;SDS011;29904;51.058;5.378;2023-03-01T01:49:32;7.22;;;5.40;;
44228;SDS011;29904;51.058;5.378;2023-03-01T01:54:53;10.07;;;6.07;;
44228;SDS011;29904;51.058;5.378;2023-03-01T01:57:32;6.88;;;5.32;;
44228;SDS011;29904;51.058;5.378;2023-03-01T02:00:04;8.20;;;6.15;;
44228;SDS011;29904;51.058;5.378;2023-03-01T02:02:35;9.75;;;6.32;;
44228;SDS011;29904;51.058;5.378;2023-03-01T02:05:05;10.05;;;6.32;;
44228;SDS011;29904;51.058;5.378;2023-03-01T02:07:36;6.90;;;5.53;;
44228;SDS011;29904;51.058;5.378;2023-03-01T02:10:05;8.32;;;5.32;;
44228;SDS011;29904;51.058;5.378;2023-03-01T02:12:31;7.50;;;5.65;;
44228;SDS011;29904;51.058;5.378;2023-03-01T02:14:59;8.77;;;6.10;;
44228;SDS011;29904;51.058;5.378;2023-03-01T02:17:24;8.60;;;5.50;;
44228;SDS011;29904;51.058;5.378;2023-03-01T02:22:31;8.93;;;6.18;;
44228;SDS011;29904;51.058;5.378;2023-03-01T02:25:12;8.13;;;5.90;;
44228;SDS011;29904;51.058;5.378;2023-03-01T02:30:24;8.27;;;5.63;;
44228;SDS011;29904;51.058;5.378;2023-03-01T02:32:53;8.65;;;5.70;;
44228;SDS011;29904;51.058;5.378;2023-03-01T02:35:27;8.70;;;5.77;;
44228;SDS011;29904;51.058;5.378;2023-03-01T02:37:57;9.27;;;6.05;;
44228;SDS011;29904;51.058;5.378;2023-03-01T02:40:25;8.63;;;6.18;;
44228;SDS011;29904;51.058;5.378;2023-03-01T02:42:56;7.90;;;5.87;;
44228;SDS011;29904;51.058;5.378;2023-03-01T02:45:24;10.45;;;6.38;;
44228;SDS011;29904;51.058;5.378;2023-03-01T02:47:53;7.95;;;5.90;;
44228;SDS011;29904;51.058;5.378;2023-03-01T02:50:38;9.07;;;6.13;;
44228;SDS011;29904;51.058;5.378;2023-03-01T02:56:14;10.20;;;6.65;;
44228;SDS011;29904;51.058;5.378;2023-03-01T02:58:42;10.13;;;6.40;;
44228;SDS011;29904;51.058;5.378;2023-03-01T03:01:16;9.00;;;6.18;;
44228;SDS011;29904;51.058;5.378;2023-03-01T03:03:45;9.75;;;5.78;;
44228;SDS011;29904;51.058;5.378;2023-03-01T03:06:11;8.20;;;6.15;;
44228;SDS011;29904;51.058;5.378;2023-03-01T03:08:37;8.00;;;6.10;;
44228;SDS011;29904;51.058;5.378;2023-03-01T03:11:05;8.88;;;6.38;;
44228;SDS011;29904;51.058;5.378;2023-03-01T03:13:31;9.63;;;6.27;;
44228;SDS011;29904;51.058;5.378;2023-03-01T03:15:57;10.27;;;6.32;;
44228;SDS011;29904;51.058;5.378;2023-03-01T03:18:23;11.80;;;6.30;;
44228;SDS011;29904;51.058;5.378;2023-03-01T03:20:53;9.40;;;5.97;;
44228;SDS011;29904;51.058;5.378;2023-03-01T03:23:20;9.95;;;6.40;;
44228;SDS011;29904;51.058;5.378;2023-03-01T03:25:50;9.75;;;6.65;;
44228;SDS011;29904;51.058;5.378;2023-03-01T03:28:16;9.30;;;6.28;;
44228;SDS011;29904;51.058;5.378;2023-03-01T03:30:44;8.35;;;6.47;;
44228;SDS011;29904;51.058;5.378;2023-03-01T03:33:10;8.88;;;6.60;;
44228;SDS011;29904;51.058;5.378;2023-03-01T03:35:44;8.88;;;6.63;;
44228;SDS011;29904;51.058;5.378;2023-03-01T03:38:11;9.25;;;6.03;;
44228;SDS011;29904;51.058;5.378;2023-03-01T03:40:45;8.55;;;6.57;;
44228;SDS011;29904;51.058;5.378;2023-03-01T03:43:13;8.60;;;6.47;;
44228;SDS011;29904;51.058;5.378;2023-03-01T03:45:50;10.60;;;6.60;;
44228;SDS011;29904;51.058;5.378;2023-03-01T03:48:19;8.32;;;6.05;;
44228;SDS011;29904;51.058;5.378;2023-03-01T03:50:52;8.85;;;6.00;;
44228;SDS011;29904;51.058;5.378;2023-03-01T03:53:21;9.27;;;5.97;;
44228;SDS011;29904;51.058;5.378;2023-03-01T03:55:48;8.60;;;6.30;;
44228;SDS011;29904;51.058;5.378;2023-03-01T03:58:14;8.05;;;5.97;;
44228;SDS011;29904;51.058;5.378;2023-03-01T04:00:42;10.07;;;5.97;;
44228;SDS011;29904;51.058;5.378;2023-03-01T04:03:09;10.57;;;6.75;;
44228;SDS011;29904;51.058;5.378;2023-03-01T04:05:37;8.57;;;6.30;;
44228;SDS011;29904;51.058;5.378;2023-03-01T04:08:05;8.30;;;6.32;;
44228;SDS011;29904;51.058;5.378;2023-03-01T04:10:33;9.83;;;6.37;;
44228;SDS011;29904;51.058;5.378;2023-03-01T04:13:00;8.93;;;6.32;;
44228;SDS011;29904;51.058;5.378;2023-03-01T04:15:28;10.32;;;6.95;;
44228;SDS011;29904;51.058;5.378;2023-03-01T04:17:54;10.37;;;7.07;;
44228;SDS011;29904;51.058;5.378;2023-03-01T04:20:21;10.00;;;6.68;;
44228;SDS011;29904;51.058;5.378;2023-03-01T04:22:59;8.97;;;6.27;;
44228;SDS011;29904;51.058;5.378;2023-03-01T04:25:57;10.70;;;6.53;;
44228;SDS011;29904;51.058;5.378;2023-03-01T04:28:22;9.73;;;6.43;;
44228;SDS011;29904;51.058;5.378;2023-03-01T04:30:54;8.50;;;6.50;;
44228;SDS011;29904;51.058;5.378;2023-03-01T04:33:23;11.10;;;6.57;;
44228;SDS011;29904;51.058;5.378;2023-03-01T04:35:49;9.38;;;6.10;;
44228;SDS011;29904;51.058;5.378;2023-03-01T04:38:19;8.63;;;6.13;;
44228;SDS011;29904;51.058;5.378;2023-03-01T04:40:46;8.88;;;6.03;;
44228;SDS011;29904;51.058;5.378;2023-03-01T04:43:12;8.75;;;6.38;;
44228;SDS011;29904;51.058;5.378;2023-03-01T04:45:39;8.93;;;6.20;;
44228;SDS011;29904;51.058;5.378;2023-03-01T04:48:07;9.45;;;6.47;;
44228;SDS011;29904;51.058;5.378;2023-03-01T04:50:33;10.77;;;6.70;;
44228;SDS011;29904;51.058;5.378;2023-03-01T04:52:59;9.02;;;6.78;;
44228;SDS011;29904;51.058;5.378;2023-03-01T04:55:28;9.65;;;7.22;;
44228;SDS011;29904;51.058;5.378;2023-03-01T04:57:54;9.02;;;6.85;;
44228;SDS011;29904;51.058;5.378;2023-03-01T05:00:20;9.02;;;6.85;;
44228;SDS011;29904;51.058;5.378;2023-03-01T05:02:51;10.30;;;6.68;;
44228;SDS011;29904;51.058;5.378;2023-03-01T05:05:20;10.67;;;6.83;;
44228;SDS011;29904;51.058;5.378;2023-03-01T05:07:50;9.07;;;6.43;;
44228;SDS011;29904;51.058;5.378;2023-03-01T05:10:26;10.00;;;6.90;;
44228;SDS011;29904;51.058;5.378;2023-03-01T05:12:55;10.32;;;7.13;;
44228;SDS011;29904;51.058;5.378;2023-03-01T05:15:22;10.10;;;6.90;;
44228;SDS011;29904;51.058;5.378;2023-03-01T05:17:53;11.87;;;6.93;;
44228;SDS011;29904;51.058;5.378;2023-03-01T05:20:19;10.27;;;6.53;;
44228;SDS011;29904;51.058;5.378;2023-03-01T05:22:49;8.13;;;6.65;;
44228;SDS011;29904;51.058;5.378;2023-03-01T05:25:16;11.65;;;7.05;;
44228;SDS011;29904;51.058;5.378;2023-03-01T05:27:42;11.10;;;6.95;;
44228;SDS011;29904;51.058;5.378;2023-03-01T05:30:08;10.50;;;7.13;;
44228;SDS011;29904;51.058;5.378;2023-03-01T05:32:45;11.70;;;7.28;;
44228;SDS011;29904;51.058;5.378;2023-03-01T05:35:13;11.80;;;6.88;;
44228;SDS011;29904;51.058;5.378;2023-03-01T05:37:44;9.30;;;6.57;;
44228;SDS011;29904;51.058;5.378;2023-03-01T05:40:13;11.85;;;7.28;;
44228;SDS011;29904;51.058;5.378;2023-03-01T05:42:44;9.88;;;6.82;;
44228;SDS011;29904;51.058;5.378;2023-03-01T05:45:11;10.63;;;7.05;;
44228;SDS011;29904;51.058;5.378;2023-03-01T05:47:38;11.20;;;6.90;;
44228;SDS011;29904;51.058;5.378;2023-03-01T05:50:08;10.60;;;7.18;;
44228;SDS011;29904;51.058;5.378;2023-03-01T05:52:39;9.95;;;6.70;;
44228;SDS011;29904;51.058;5.378;2023-03-01T05:55:05;9.07;;;6.70;;
44228;SDS011;29904;51.058;5.378;2023-03-01T05:57:31;9.93;;;6.77;;
44228;SDS011;29904;51.058;5.378;2023-03-01T05:59:57;9.75;;;7.03;;
44228;SDS011;29904;51.058;5.378;2023-03-01T06:02:23;9.98;;;7.03;;
44228;SDS011;29904;51.058;5.378;2023-03-01T06:04:49;11.00;;;7.43;;
44228;SDS011;29904;51.058;5.378;2023-03-01T06:07:14;10.05;;;7.45;;
44228;SDS011;29904;51.058;5.378;2023-03-01T06:09:42;10.30;;;7.05;;
44228;SDS011;29904;51.058;5.378;2023-03-01T06:12:07;10.18;;;6.97;;
44228;SDS011;29904;51.058;5.378;2023-03-01T06:14:33;10.57;;;6.97;;
44228;SDS011;29904;51.058;5.378;2023-03-01T06:17:01;10.57;;;7.35;;
44228;SDS011;29904;51.058;5.378;2023-03-01T06:19:26;10.63;;;7.00;;
44228;SDS011;29904;51.058;5.378;2023-03-01T06:21:52;11.40;;;6.93;;
44228;SDS011;29904;51.058;5.378;2023-03-01T06:24:18;9.25;;;7.00;;
44228;SDS011;29904;51.058;5.378;2023-03-01T06:26:44;12.63;;;7.50;;
44228;SDS011;29904;51.058;5.378;2023-03-01T06:29:09;10.97;;;7.43;;
44228;SDS011;29904;51.058;5.378;2023-03-01T06:31:35;12.33;;;7.90;;
44228;SDS011;29904;51.058;5.378;2023-03-01T06:34:01;10.45;;;7.28;;
44228;SDS011;29904;51.058;5.378;2023-03-01T06:36:27;11.98;;;7.40;;
44228;SDS011;29904;51.058;5.378;2023-03-01T06:38:52;9.35;;;6.93;;
44228;SDS011;29904;51.058;5.378;2023-03-01T06:41:18;11.73;;;7.60;;
44228;SDS011;29904;51.058;5.378;2023-03-01T06:43:44;10.27;;;7.30;;
44228;SDS011;29904;51.058;5.378;2023-03-01T06:46:11;11.55;;;7.68;;
44228;SDS011;29904;51.058;5.378;2023-03-01T06:48:37;11.52;;;7.38;;
44228;SDS011;29904;51.058;5.378;2023-03-01T06:51:03;11.75;;;8.00;;
44228;SDS011;29904;51.058;5.378;2023-03-01T06:53:29;13.13;;;8.13;;
44228;SDS011;29904;51.058;5.378;2023-03-01T06:55:55;12.02;;;7.78;;
44228;SDS011;29904;51.058;5.378;2023-03-01T06:58:25;9.93;;;7.05;;
44228;SDS011;29904;51.058;5.378;2023-03-01T07:00:51;11.35;;;7.28;;
44228;SDS011;29904;51.058;5.378;2023-03-01T07:03:17;12.10;;;7.40;;
44228;SDS011;29904;51.058;5.378;2023-03-01T07:05:43;10.07;;;7.18;;
44228;SDS011;29904;51.058;5.378;2023-03-01T07:08:14;11.88;;;7.70;;
44228;SDS011;29904;51.058;5.378;2023-03-01T07:10:39;11.67;;;8.00;;
44228;SDS011;29904;51.058;5.378;2023-03-01T07:13:05;12.87;;;8.27;;
44228;SDS011;29904;51.058;5.378;2023-03-01T07:15:34;11.53;;;7.53;;
44228;SDS011;29904;51.058;5.378;2023-03-01T07:18:00;13.07;;;8.20;;
44228;SDS011;29904;51.058;5.378;2023-03-01T07:20:26;11.43;;;7.70;;
44228;SDS011;29904;51.058;5.378;2023-03-01T07:22:56;12.17;;;8.00;;
44228;SDS011;29904;51.058;5.378;2023-03-01T07:25:23;10.60;;;7.75;;
44228;SDS011;29904;51.058;5.378;2023-03-01T07:27:53;12.35;;;7.70;;
44228;SDS011;29904;51.058;5.378;2023-03-01T07:30:19;12.55;;;8.02;;
44228;SDS011;29904;51.058;5.378;2023-03-01T07:32:46;12.05;;;7.80;;
44228;SDS011;29904;51.058;5.378;2023-03-01T07:35:11;11.82;;;8.18;;
44228;SDS011;29904;51.058;5.378;2023-03-01T07:37:37;12.10;;;8.10;;
44228;SDS011;29904;51.058;5.378;2023-03-01T07:40:03;11.20;;;7.78;;
44228;SDS011;29904;51.058;5.378;2023-03-01T07:42:29;11.90;;;7.90;;
44228;SDS011;29904;51.058;5.378;2023-03-01T07:44:55;10.95;;;7.85;;
44228;SDS011;29904;51.058;5.378;2023-03-01T07:47:21;11.93;;;8.27;;
44228;SDS011;29904;51.058;5.378;2023-03-01T07:49:46;12.88;;;7.65;;
44228;SDS011;29904;51.058;5.378;2023-03-01T07:52:12;11.97;;;7.67;;
44228;SDS011;29904;51.058;5.378;2023-03-01T07:54:38;11.27;;;7.75;;
44228;SDS011;29904;51.058;5.378;2023-03-01T07:57:04;11.05;;;8.00;;
44228;SDS011;29904;51.058;5.378;2023-03-01T07:59:30;12.23;;;7.95;;
44228;SDS011;29904;51.058;5.378;2023-03-01T08:01:56;11.57;;;8.07;;
44228;SDS011;29904;51.058;5.378;2023-03-01T08:04:22;13.10;;;8.52;;
44228;SDS011;29904;51.058;5.378;2023-03-01T08:06:50;10.50;;;7.82;;
44228;SDS011;29904;51.058;5.378;2023-03-01T08:09:16;13.15;;;8.30;;
44228;SDS011;29904;51.058;5.378;2023-03-01T08:11:42;13.03;;;8.47;;
44228;SDS011;29904;51.058;5.378;2023-03-01T08:14:09;11.40;;;7.85;;
44228;SDS011;29904;51.058;5.378;2023-03-01T08:16:35;13.10;;;8.18;;
44228;SDS011;29904;51.058;5.378;2023-03-01T08:19:08;12.18;;;7.95;;
44228;SDS011;29904;51.058;5.378;2023-03-01T08:21:36;12.23;;;8.25;;
44228;SDS011;29904;51.058;5.378;2023-03-01T08:24:03;12.37;;;8.50;;
44228;SDS011;29904;51.058;5.378;2023-03-01T08:26:30;12.45;;;8.40;;
44228;SDS011;29904;51.058;5.378;2023-03-01T08:28:58;12.07;;;8.35;;
44228;SDS011;29904;51.058;5.378;2023-03-01T08:31:38;12.25;;;8.10;;
44228;SDS011;29904;51.058;5.378;2023-03-01T08:34:06;11.68;;;7.50;;
44228;SDS011;29904;51.058;5.378;2023-03-01T08:36:38;12.98;;;8.20;;
44228;SDS011;29904;51.058;5.378;2023-03-01T08:39:06;11.38;;;7.90;;
44228;SDS011;29904;51.058;5.378;2023-03-01T08:41:33;13.52;;;8.55;;
44228;SDS011;29904;51.058;5.378;2023-03-01T08:43:59;12.07;;;8.02;;
44228;SDS011;29904;51.058;5.378;2023-03-01T08:46:29;12.35;;;8.20;;
44228;SDS011;29904;51.058;5.378;2023-03-01T08:49:05;11.30;;;7.80;;
44228;SDS011;29904;51.058;5.378;2023-03-01T08:51:32;12.75;;;8.18;;
44228;SDS011;29904;51.058;5.378;2023-03-01T08:54:01;11.88;;;8.38;;
44228;SDS011;29904;51.058;5.378;2023-03-01T08:56:28;12.45;;;7.93;;
44228;SDS011;29904;51.058;5.378;2023-03-01T08:58:54;14.05;;;8.18;;
44228;SDS011;29904;51.058;5.378;2023-03-01T09:01:19;12.02;;;8.52;;
44228;SDS011;29904;51.058;5.378;2023-03-01T09:03:45;12.90;;;8.43;;
44228;SDS011;29904;51.058;5.378;2023-03-01T09:06:11;27.03;;;14.23;;
44228;SDS011;29904;51.058;5.378;2023-03-01T09:08:39;26.38;;;14.20;;
44228;SDS011;29904;51.058;5.378;2023-03-01T09:11:07;21.45;;;11.90;;
44228;SDS011;29904;51.058;5.378;2023-03-01T09:13:36;16.87;;;10.03;;
44228;SDS011;29904;51.058;5.378;2023-03-01T09:16:02;12.75;;;8.45;;
44228;SDS011;29904;51.058;5.378;2023-03-01T09:18:29;12.75;;;8.52;;
44228;SDS011;29904;51.058;5.378;2023-03-01T09:21:14;11.45;;;8.60;;
44228;SDS011;29904;51.058;5.378;2023-03-01T09:23:42;14.00;;;8.32;;
44228;SDS011;29904;51.058;5.378;2023-03-01T09:26:11;12.77;;;8.60;;
44228;SDS011;29904;51.058;5.378;2023-03-01T09:28:46;12.63;;;8.35;;
44228;SDS011;29904;51.058;5.378;2023-03-01T09:31:13;11.50;;;7.93;;
44228;SDS011;29904;51.058;5.378;2023-03-01T09:33:41;11.15;;;7.60;;
44228;SDS011;29904;51.058;5.378;2023-03-01T09:36:11;13.63;;;8.38;;
44228;SDS011;29904;51.058;5.378;2023-03-01T09:38:39;11.50;;;8.05;;
44228;SDS011;29904;51.058;5.378;2023-03-01T09:41:18;13.80;;;8.13;;
44228;SDS011;29904;51.058;5.378;2023-03-01T09:44:10;13.25;;;8.25;;
44228;SDS011;29904;51.058;5.378;2023-03-01T09:46:38;11.07;;;7.63;;
44228;SDS011;29904;51.058;5.378;2023-03-01T09:49:11;13.48;;;8.63;;
44228;SDS011;29904;51.058;5.378;2023-03-01T09:51:41;12.25;;;8.73;;
44228;SDS011;29904;51.058;5.378;2023-03-01T09:54:11;13.63;;;8.85;;
44228;SDS011;29904;51.058;5.378;2023-03-01T09:56:41;12.18;;;8.25;;
44228;SDS011;29904;51.058;5.378;2023-03-01T10:02:24;12.00;;;8.00;;
44228;SDS011;29904;51.058;5.378;2023-03-01T10:05:04;13.15;;;8.20;;
44228;SDS011;29904;51.058;5.378;2023-03-01T10:07:53;14.38;;;8.38;;
44228;SDS011;29904;51.058;5.378;2023-03-01T10:10:43;13.00;;;8.45;;
44228;SDS011;29904;51.058;5.378;2023-03-01T10:13:19;14.35;;;8.40;;
44228;SDS011;29904;51.058;5.378;2023-03-01T10:15:51;11.88;;;8.20;;
44228;SDS011;29904;51.058;5.378;2023-03-01T10:18:25;14.60;;;9.13;;
44228;SDS011;29904;51.058;5.378;2023-03-01T10:23:49;13.20;;;8.50;;
44228;SDS011;29904;51.058;5.378;2023-03-01T10:29:03;13.13;;;7.88;;
44228;SDS011;29904;51.058;5.378;2023-03-01T10:34:08;13.15;;;8.48;;
44228;SDS011;29904;51.058;5.378;2023-03-01T10:36:36;13.77;;;8.75;;
44228;SDS011;29904;51.058;5.378;2023-03-01T10:39:11;12.57;;;8.13;;
44228;SDS011;29904;51.058;5.378;2023-03-01T10:44:43;12.45;;;7.97;;
44228;SDS011;29904;51.058;5.378;2023-03-01T10:47:15;11.00;;;8.03;;
44228;SDS011;29904;51.058;5.378;2023-03-01T10:50:04;12.25;;;7.97;;
44228;SDS011;29904;51.058;5.378;2023-03-01T10:52:55;13.27;;;8.32;;
44228;SDS011;29904;51.058;5.378;2023-03-01T10:58:20;13.33;;;8.57;;
44228;SDS011;29904;51.058;5.378;2023-03-01T11:03:25;12.98;;;8.65;;
44228;SDS011;29904;51.058;5.378;2023-03-01T11:05:56;15.00;;;9.50;;
44228;SDS011;29904;51.058;5.378;2023-03-01T11:11:18;12.97;;;8.93;;
44228;SDS011;29904;51.058;5.378;2023-03-01T11:16:21;11.55;;;7.72;;
44228;SDS011;29904;51.058;5.378;2023-03-01T11:19:07;10.80;;;7.90;;
44228;SDS011;29904;51.058;5.378;2023-03-01T11:27:23;12.20;;;7.73;;
44228;SDS011;29904;51.058;5.378;2023-03-01T11:29:59;10.32;;;7.70;;
44228;SDS011;29904;51.058;5.378;2023-03-01T11:32:50;11.38;;;7.97;;
44228;SDS011;29904;51.058;5.378;2023-03-01T11:35:34;10.98;;;7.90;;
44228;SDS011;29904;51.058;5.378;2023-03-01T11:40:58;12.77;;;7.65;;
44228;SDS011;29904;51.058;5.378;2023-03-01T11:43:50;11.50;;;7.60;;
44228;SDS011;29904;51.058;5.378;2023-03-01T11:49:12;11.80;;;8.13;;
44228;SDS011;29904;51.058;5.378;2023-03-01T11:55:12;11.13;;;7.65;;
44228;SDS011;29904;51.058;5.378;2023-03-01T11:57:47;10.80;;;7.50;;
44228;SDS011;29904;51.058;5.378;2023-03-01T12:00:49;11.10;;;7.55;;
44228;SDS011;29904;51.058;5.378;2023-03-01T12:06:57;13.07;;;8.10;;
44228;SDS011;29904;51.058;5.378;2023-03-01T12:13:02;13.75;;;8.63;;
44228;SDS011;29904;51.058;5.378;2023-03-01T12:15:28;12.93;;;7.85;;
44228;SDS011;29904;51.058;5.378;2023-03-01T12:26:54;12.27;;;7.82;;
44228;SDS011;29904;51.058;5.378;2023-03-01T12:29:50;10.43;;;7.70;;
44228;SDS011;29904;51.058;5.378;2023-03-01T12:35:16;11.73;;;7.63;;
44228;SDS011;29904;51.058;5.378;2023-03-01T12:38:24;10.63;;;7.63;;
44228;SDS011;29904;51.058;5.378;2023-03-01T12:43:52;9.48;;;6.90;;
44228;SDS011;29904;51.058;5.378;2023-03-01T12:46:41;11.30;;;7.20;;
44228;SDS011;29904;51.058;5.378;2023-03-01T12:51:49;10.43;;;7.40;;
44228;SDS011;29904;51.058;5.378;2023-03-01T12:54:36;10.48;;;6.93;;
44228;SDS011;29904;51.058;5.378;2023-03-01T12:57:22;10.10;;;7.57;;
44228;SDS011;29904;51.058;5.378;2023-03-01T13:00:17;9.17;;;6.53;;
44228;SDS011;29904;51.058;5.378;2023-03-01T13:08:44;11.30;;;7.28;;
44228;SDS011;29904;51.058;5.378;2023-03-01T13:11:28;11.02;;;7.38;;
44228;SDS011;29904;51.058;5.378;2023-03-01T13:16:50;11.67;;;8.30;;
44228;SDS011;29904;51.058;5.378;2023-03-01T13:19:20;13.40;;;8.68;;
44228;SDS011;29904;51.058;5.378;2023-03-01T13:21:48;13.00;;;7.73;;
44228;SDS011;29904;51.058;5.378;2023-03-01T13:24:38;11.25;;;7.63;;
44228;SDS011;29904;51.058;5.378;2023-03-01T13:29:48;11.43;;;7.70;;
44228;SDS011;29904;51.058;5.378;2023-03-01T13:32:20;10.07;;;7.00;;
44228;SDS011;29904;51.058;5.378;2023-03-01T13:34:51;11.90;;;7.60;;
44228;SDS011;29904;51.058;5.378;2023-03-01T13:37:20;10.10;;;6.70;;
44228;SDS011;29904;51.058;5.378;2023-03-01T13:39:48;10.45;;;7.05;;
44228;SDS011;29904;51.058;5.378;2023-03-01T13:42:28;10.77;;;7.55;;
44228;SDS011;29904;51.058;5.378;2023-03-01T13:44:57;10.40;;;7.45;;
44228;SDS011;29904;51.058;5.378;2023-03-01T13:47:24;11.18;;;7.18;;
44228;SDS011;29904;51.058;5.378;2023-03-01T13:52:42;10.23;;;6.88;;
44228;SDS011;29904;51.058;5.378;2023-03-01T13:57:46;9.60;;;6.93;;
44228;SDS011;29904;51.058;5.378;2023-03-01T14:03:02;11.18;;;7.13;;
44228;SDS011;29904;51.058;5.378;2023-03-01T14:05:38;11.25;;;7.20;;
44228;SDS011;29904;51.058;5.378;2023-03-01T14:08:17;11.35;;;6.88;;
44228;SDS011;29904;51.058;5.378;2023-03-01T14:11:01;9.75;;;6.55;;
44228;SDS011;29904;51.058;5.378;2023-03-01T14:13:54;8.65;;;6.03;;
44228;SDS011;29904;51.058;5.378;2023-03-01T14:16:46;12.77;;;6.70;;
44228;SDS011;29904;51.058;5.378;2023-03-01T14:19:19;9.68;;;6.68;;
44228;SDS011;29904;51.058;5.378;2023-03-01T14:22:02;10.18;;;6.70;;
44228;SDS011;29904;51.058;5.378;2023-03-01T14:24:38;8.43;;;5.93;;
44228;SDS011;29904;51.058;5.378;2023-03-01T14:27:12;9.10;;;5.85;;
44228;SDS011;29904;51.058;5.378;2023-03-01T14:29:39;9.60;;;5.53;;
44228;SDS011;29904;51.058;5.378;2023-03-01T14:32:15;10.52;;;6.00;;
44228;SDS011;29904;51.058;5.378;2023-03-01T14:34:48;8.85;;;5.90;;
44228;SDS011;29904;51.058;5.378;2023-03-01T14:39:56;9.15;;;5.70;;
44228;SDS011;29904;51.058;5.378;2023-03-01T14:42:24;10.63;;;5.93;;
44228;SDS011;29904;51.058;5.378;2023-03-01T14:44:55;8.65;;;5.70;;
44228;SDS011;29904;51.058;5.378;2023-03-01T14:47:34;8.68;;;5.63;;
44228;SDS011;29904;51.058;5.378;2023-03-01T14:50:02;7.75;;;5.80;;
44228;SDS011;29904;51.058;5.378;2023-03-01T14:52:36;8.43;;;5.43;;
44228;SDS011;29904;51.058;5.378;2023-03-01T14:55:05;8.05;;;5.50;;
44228;SDS011;29904;51.058;5.378;2023-03-01T14:57:42;7.72;;;5.03;;
44228;SDS011;29904;51.058;5.378;2023-03-01T15:00:31;8.05;;;5.32;;
44228;SDS011;29904;51.058;5.378;2023-03-01T15:02:58;7.35;;;4.82;;
44228;SDS011;29904;51.058;5.378;2023-03-01T15:05:32;8.05;;;5.05;;
44228;SDS011;29904;51.058;5.378;2023-03-01T15:07:58;8.13;;;5.18;;
44228;SDS011;29904;51.058;5.378;2023-03-01T15:10:28;7.15;;;5.18;;
44228;SDS011;29904;51.058;5.378;2023-03-01T15:13:19;7.00;;;5.13;;
44228;SDS011;29904;51.058;5.378;2023-03-01T15:15:47;9.80;;;5.97;;
44228;SDS011;29904;51.058;5.378;2023-03-01T15:18:18;10.10;;;6.28;;
44228;SDS011;29904;51.058;5.378;2023-03-01T15:20:51;7.88;;;5.00;;
44228;SDS011;29904;51.058;5.378;2023-03-01T15:23:28;7.05;;;5.03;;
44228;SDS011;29904;51.058;5.378;2023-03-01T15:25:55;8.70;;;5.43;;
44228;SDS011;29904;51.058;5.378;2023-03-01T15:28:23;8.93;;;5.05;;
44228;SDS011;29904;51.058;5.378;2023-03-01T15:33:45;9.38;;;5.50;;
44228;SDS011;29904;51.058;5.378;2023-03-01T15:38:55;6.70;;;4.50;;
44228;SDS011;29904;51.058;5.378;2023-03-01T15:41:32;6.50;;;4.55;;
44228;SDS011;29904;51.058;5.378;2023-03-01T15:44:18;7.32;;;4.80;;
44228;SDS011;29904;51.058;5.378;2023-03-01T15:46:54;7.90;;;4.88;;
44228;SDS011;29904;51.058;5.378;2023-03-01T15:52:06;7.10;;;4.50;;
44228;SDS011;29904;51.058;5.378;2023-03-01T15:54:57;7.18;;;4.82;;
44228;SDS011;29904;51.058;5.378;2023-03-01T15:57:26;6.45;;;4.50;;
44228;SDS011;29904;51.058;5.378;2023-03-01T15:59:52;6.90;;;4.93;;
44228;SDS011;29904;51.058;5.378;2023-03-01T16:02:18;7.25;;;4.63;;
44228;SDS011;29904;51.058;5.378;2023-03-01T16:04:47;7.22;;;4.68;;
44228;SDS011;29904;51.058;5.378;2023-03-01T16:07:16;6.38;;;4.60;;
44228;SDS011;29904;51.058;5.378;2023-03-01T16:09:42;8.30;;;4.53;;
44228;SDS011;29904;51.058;5.378;2023-03-01T16:12:12;7.47;;;4.70;;
44228;SDS011;29904;51.058;5.378;2023-03-01T16:14:40;7.25;;;4.57;;
44228;SDS011;29904;51.058;5.378;2023-03-01T16:17:06;6.53;;;4.63;;
44228;SDS011;29904;51.058;5.378;2023-03-01T16:19:35;7.25;;;4.60;;
44228;SDS011;29904;51.058;5.378;2023-03-01T16:22:02;7.63;;;4.82;;
44228;SDS011;29904;51.058;5.378;2023-03-01T16:24:28;9.45;;;4.95;;
44228;SDS011;29904;51.058;5.378;2023-03-01T16:26:54;5.78;;;4.25;;
44228;SDS011;29904;51.058;5.378;2023-03-01T16:29:20;7.73;;;4.63;;
44228;SDS011;29904;51.058;5.378;2023-03-01T16:31:46;6.97;;;4.47;;
44228;SDS011;29904;51.058;5.378;2023-03-01T16:34:12;8.75;;;4.63;;
44228;SDS011;29904;51.058;5.378;2023-03-01T16:36:38;7.17;;;4.70;;
44228;SDS011;29904;51.058;5.378;2023-03-01T16:39:04;7.13;;;4.97;;
44228;SDS011;29904;51.058;5.378;2023-03-01T16:41:31;8.73;;;4.93;;
44228;SDS011;29904;51.058;5.378;2023-03-01T16:43:57;9.18;;;5.15;;
44228;SDS011;29904;51.058;5.378;2023-03-01T16:46:24;8.03;;;4.73;;
44228;SDS011;29904;51.058;5.378;2023-03-01T16:48:53;7.95;;;5.28;;